Choctaw, Oklahoma
Current Conditions -  °F | °C
As of 12:58 PM on Thursday 18 Dec 2014 (Local Time) from KTIK Reporting Station
Haze Haze  
Wind Chill: 41°   Ceiling: 400
Heat Index: 41°   Visibility: 6mi
Dew Point: 40°   Wind: 1mph
Humidity: 95%   Direction: 350°N
Pressure: 30.13"   Gusts: NA
Location:  35.49°N, 97.27°W
Report Text: KTIK 181858Z AUTO 35001KT 6SM BR OVC004 05/05 A3013 RMK AO2 SLP217 T00520045
Loading
Personal Weather Stations






























Interactive Weather Map New forecast layout! Learn more

10-Day Weather Forecast

Advertisements
Track Severe Weather on mobile